sensor_id;sensor_type;location;lat;lon;timestamp;temperature;humidity
42365;DHT22;28498;54.400;18.566;2023-11-21T00:01:16;-0.30;99.90
42365;DHT22;28498;54.400;18.566;2023-11-21T00:03:44;-0.30;99.90
42365;DHT22;28498;54.400;18.566;2023-11-21T00:06:11;-0.30;99.90
42365;DHT22;28498;54.400;18.566;2023-11-21T00:08:38;-0.30;99.90
42365;DHT22;28498;54.400;18.566;2023-11-21T00:11:05;-0.20;99.90
42365;DHT22;28498;54.400;18.566;2023-11-21T00:13:33;-0.20;99.90
42365;DHT22;28498;54.400;18.566;2023-11-21T00:16:00;-0.30;99.90
42365;DHT22;28498;54.400;18.566;2023-11-21T00:18:27;-0.30;99.90
42365;DHT22;28498;54.400;18.566;2023-11-21T00:20:54;-0.40;99.90
42365;DHT22;28498;54.400;18.566;2023-11-21T00:23:21;-0.30;99.90
42365;DHT22;28498;54.400;18.566;2023-11-21T00:25:48;-0.40;99.90
42365;DHT22;28498;54.400;18.566;2023-11-21T00:28:15;-0.40;99.90
42365;DHT22;28498;54.400;18.566;2023-11-21T00:30:42;-0.40;99.90
42365;DHT22;28498;54.400;18.566;2023-11-21T00:33:09;-0.40;99.90
42365;DHT22;28498;54.400;18.566;2023-11-21T00:35:36;-0.40;99.90
42365;DHT22;28498;54.400;18.566;2023-11-21T00:38:03;-0.30;99.90
42365;DHT22;28498;54.400;18.566;2023-11-21T00:40:30;-0.30;99.90
42365;DHT22;28498;54.400;18.566;2023-11-21T00:42:58;-0.30;99.90
42365;DHT22;28498;54.400;18.566;2023-11-21T00:45:25;-0.30;99.90
42365;DHT22;28498;54.400;18.566;2023-11-21T00:47:52;-0.20;99.90
42365;DHT22;28498;54.400;18.566;2023-11-21T00:50:19;-0.10;99.90
42365;DHT22;28498;54.400;18.566;2023-11-21T00:52:46;-0.10;99.90
42365;DHT22;28498;54.400;18.566;2023-11-21T00:55:13;0.10;99.90
42365;DHT22;28498;54.400;18.566;2023-11-21T00:57:41;0.10;99.90
42365;DHT22;28498;54.400;18.566;2023-11-21T01:00:08;0.10;99.90
42365;DHT22;28498;54.400;18.566;2023-11-21T01:02:44;0.10;99.90
42365;DHT22;28498;54.400;18.566;2023-11-21T01:05:12;0.20;99.90
42365;DHT22;28498;54.400;18.566;2023-11-21T01:07:39;0.10;99.90
42365;DHT22;28498;54.400;18.566;2023-11-21T01:10:06;0.20;99.90
42365;DHT22;28498;54.400;18.566;2023-11-21T01:12:36;0.20;99.90
42365;DHT22;28498;54.400;18.566;2023-11-21T01:15:05;0.20;99.90
42365;DHT22;28498;54.400;18.566;2023-11-21T01:17:36;0.20;99.90
42365;DHT22;28498;54.400;18.566;2023-11-21T01:20:04;0.20;99.90
42365;DHT22;28498;54.400;18.566;2023-11-21T01:22:38;0.30;99.90
42365;DHT22;28498;54.400;18.566;2023-11-21T01:25:05;0.30;99.90
42365;DHT22;28498;54.400;18.566;2023-11-21T01:27:34;0.40;99.90
42365;DHT22;28498;54.400;18.566;2023-11-21T01:30:02;0.50;99.90
42365;DHT22;28498;54.400;18.566;2023-11-21T01:32:30;0.40;99.90
42365;DHT22;28498;54.400;18.566;2023-11-21T01:34:57;0.50;99.90
42365;DHT22;28498;54.400;18.566;2023-11-21T01:37:24;0.50;99.90
42365;DHT22;28498;54.400;18.566;2023-11-21T01:39:54;0.50;99.90
42365;DHT22;28498;54.400;18.566;2023-11-21T01:42:22;0.60;99.90
42365;DHT22;28498;54.400;18.566;2023-11-21T01:44:49;0.50;99.90
42365;DHT22;28498;54.400;18.566;2023-11-21T01:47:16;0.70;99.90
42365;DHT22;28498;54.400;18.566;2023-11-21T01:49:44;0.50;99.90
42365;DHT22;28498;54.400;18.566;2023-11-21T01:52:12;0.60;99.90
42365;DHT22;28498;54.400;18.566;2023-11-21T01:54:41;0.60;99.90
42365;DHT22;28498;54.400;18.566;2023-11-21T01:57:09;0.60;99.90
42365;DHT22;28498;54.400;18.566;2023-11-21T01:59:37;0.60;99.90
42365;DHT22;28498;54.400;18.566;2023-11-21T02:02:06;0.60;99.90
42365;DHT22;28498;54.400;18.566;2023-11-21T02:04:34;0.60;99.90
42365;DHT22;28498;54.400;18.566;2023-11-21T02:07:01;0.60;99.90
42365;DHT22;28498;54.400;18.566;2023-11-21T02:09:28;0.60;99.90
42365;DHT22;28498;54.400;18.566;2023-11-21T02:12:04;0.60;99.90
42365;DHT22;28498;54.400;18.566;2023-11-21T02:14:32;0.60;99.90
42365;DHT22;28498;54.400;18.566;2023-11-21T02:16:58;0.60;99.90
42365;DHT22;28498;54.400;18.566;2023-11-21T02:19:27;0.60;99.90
42365;DHT22;28498;54.400;18.566;2023-11-21T02:21:57;0.60;99.90
42365;DHT22;28498;54.400;18.566;2023-11-21T02:24:27;0.60;99.90
42365;DHT22;28498;54.400;18.566;2023-11-21T02:26:54;0.60;99.90
42365;DHT22;28498;54.400;18.566;2023-11-21T02:29:22;0.50;99.90
42365;DHT22;28498;54.400;18.566;2023-11-21T02:31:51;0.60;99.90
42365;DHT22;28498;54.400;18.566;2023-11-21T02:34:18;0.60;99.90
42365;DHT22;28498;54.400;18.566;2023-11-21T02:36:45;0.60;99.90
42365;DHT22;28498;54.400;18.566;2023-11-21T02:39:12;0.60;99.90
42365;DHT22;28498;54.400;18.566;2023-11-21T02:41:40;0.60;99.90
42365;DHT22;28498;54.400;18.566;2023-11-21T02:44:07;0.60;99.90
42365;DHT22;28498;54.400;18.566;2023-11-21T02:46:35;0.60;99.90
42365;DHT22;28498;54.400;18.566;2023-11-21T02:49:03;0.60;99.90
42365;DHT22;28498;54.400;18.566;2023-11-21T02:51:30;0.50;99.90
42365;DHT22;28498;54.400;18.566;2023-11-21T02:53:57;0.60;99.90
42365;DHT22;28498;54.400;18.566;2023-11-21T02:56:25;0.90;99.90
42365;DHT22;28498;54.400;18.566;2023-11-21T02:58:59;0.60;99.90
42365;DHT22;28498;54.400;18.566;2023-11-21T03:01:27;0.60;99.90
42365;DHT22;28498;54.400;18.566;2023-11-21T03:03:54;0.60;99.90
42365;DHT22;28498;54.400;18.566;2023-11-21T03:06:23;0.60;99.90
42365;DHT22;28498;54.400;18.566;2023-11-21T03:08:50;0.60;99.90
42365;DHT22;28498;54.400;18.566;2023-11-21T03:11:17;0.70;99.90
42365;DHT22;28498;54.400;18.566;2023-11-21T03:13:44;0.60;99.90
42365;DHT22;28498;54.400;18.566;2023-11-21T03:16:12;0.60;99.90
42365;DHT22;28498;54.400;18.566;2023-11-21T03:18:40;0.60;99.90
42365;DHT22;28498;54.400;18.566;2023-11-21T03:21:07;0.70;99.90
42365;DHT22;28498;54.400;18.566;2023-11-21T03:23:37;0.70;99.90
42365;DHT22;28498;54.400;18.566;2023-11-21T03:26:04;0.70;99.90
42365;DHT22;28498;54.400;18.566;2023-11-21T03:28:32;0.70;99.90
42365;DHT22;28498;54.400;18.566;2023-11-21T03:30:59;0.70;99.90
42365;DHT22;28498;54.400;18.566;2023-11-21T03:33:26;0.70;99.90
42365;DHT22;28498;54.400;18.566;2023-11-21T03:35:53;0.70;99.90
42365;DHT22;28498;54.400;18.566;2023-11-21T03:38:20;0.70;99.90
42365;DHT22;28498;54.400;18.566;2023-11-21T03:40:47;0.70;99.90
42365;DHT22;28498;54.400;18.566;2023-11-21T03:43:14;0.70;99.90
42365;DHT22;28498;54.400;18.566;2023-11-21T03:45:41;0.70;99.90
42365;DHT22;28498;54.400;18.566;2023-11-21T03:48:09;0.70;99.90
42365;DHT22;28498;54.400;18.566;2023-11-21T03:50:36;0.60;99.90
42365;DHT22;28498;54.400;18.566;2023-11-21T03:53:03;0.60;99.90
42365;DHT22;28498;54.400;18.566;2023-11-21T03:55:30;0.60;99.90
42365;DHT22;28498;54.400;18.566;2023-11-21T03:57:58;0.70;99.90
42365;DHT22;28498;54.400;18.566;2023-11-21T04:00:26;0.60;99.90
42365;DHT22;28498;54.400;18.566;2023-11-21T04:02:53;0.60;99.90
42365;DHT22;28498;54.400;18.566;2023-11-21T04:05:21;0.60;99.90
42365;DHT22;28498;54.400;18.566;2023-11-21T04:07:50;0.60;99.90
42365;DHT22;28498;54.400;18.566;2023-11-21T04:10:18;0.60;99.90
42365;DHT22;28498;54.400;18.566;2023-11-21T04:12:45;0.60;99.90
42365;DHT22;28498;54.400;18.566;2023-11-21T04:15:12;0.70;99.90
42365;DHT22;28498;54.400;18.566;2023-11-21T04:17:41;0.60;99.90
42365;DHT22;28498;54.400;18.566;2023-11-21T04:20:09;0.60;99.90
42365;DHT22;28498;54.400;18.566;2023-11-21T04:22:41;0.60;99.90
42365;DHT22;28498;54.400;18.566;2023-11-21T04:25:13;0.60;99.90
42365;DHT22;28498;54.400;18.566;2023-11-21T04:27:43;0.60;99.90
42365;DHT22;28498;54.400;18.566;2023-11-21T04:30:11;0.60;99.90
42365;DHT22;28498;54.400;18.566;2023-11-21T04:32:38;0.60;99.90
42365;DHT22;28498;54.400;18.566;2023-11-21T04:35:06;0.60;99.90
42365;DHT22;28498;54.400;18.566;2023-11-21T04:37:34;0.60;99.90
42365;DHT22;28498;54.400;18.566;2023-11-21T04:40:01;0.60;99.90
42365;DHT22;28498;54.400;18.566;2023-11-21T04:42:28;0.70;99.90
42365;DHT22;28498;54.400;18.566;2023-11-21T04:44:55;1.00;99.90
42365;DHT22;28498;54.400;18.566;2023-11-21T04:47:22;1.20;99.90
42365;DHT22;28498;54.400;18.566;2023-11-21T04:49:50;1.20;99.90
42365;DHT22;28498;54.400;18.566;2023-11-21T04:52:17;1.30;99.90
42365;DHT22;28498;54.400;18.566;2023-11-21T04:54:44;1.30;99.90
42365;DHT22;28498;54.400;18.566;2023-11-21T04:57:11;1.30;99.90
42365;DHT22;28498;54.400;18.566;2023-11-21T04:59:39;1.30;99.90
42365;DHT22;28498;54.400;18.566;2023-11-21T05:02:06;1.30;99.90
42365;DHT22;28498;54.400;18.566;2023-11-21T05:04:33;1.20;99.90
42365;DHT22;28498;54.400;18.566;2023-11-21T05:07:00;1.20;99.90
42365;DHT22;28498;54.400;18.566;2023-11-21T05:09:27;1.20;99.90
42365;DHT22;28498;54.400;18.566;2023-11-21T05:11:58;1.20;99.90
42365;DHT22;28498;54.400;18.566;2023-11-21T05:14:27;1.30;99.90
42365;DHT22;28498;54.400;18.566;2023-11-21T05:16:54;1.30;99.90
42365;DHT22;28498;54.400;18.566;2023-11-21T05:19:21;1.30;99.90
42365;DHT22;28498;54.400;18.566;2023-11-21T05:21:49;1.20;99.90
42365;DHT22;28498;54.400;18.566;2023-11-21T05:24:16;1.30;99.90
42365;DHT22;28498;54.400;18.566;2023-11-21T05:26:43;1.20;99.90
42365;DHT22;28498;54.400;18.566;2023-11-21T05:29:10;1.20;99.90
42365;DHT22;28498;54.400;18.566;2023-11-21T05:31:37;1.10;99.90
42365;DHT22;28498;54.400;18.566;2023-11-21T05:34:05;1.10;99.90
42365;DHT22;28498;54.400;18.566;2023-11-21T05:36:31;1.10;99.90
42365;DHT22;28498;54.400;18.566;2023-11-21T05:38:59;1.10;99.90
42365;DHT22;28498;54.400;18.566;2023-11-21T05:41:26;1.20;99.90
42365;DHT22;28498;54.400;18.566;2023-11-21T05:43:53;1.10;99.90
42365;DHT22;28498;54.400;18.566;2023-11-21T05:46:20;1.10;99.90
42365;DHT22;28498;54.400;18.566;2023-11-21T05:48:48;1.10;99.90
42365;DHT22;28498;54.400;18.566;2023-11-21T05:51:15;1.10;99.90
42365;DHT22;28498;54.400;18.566;2023-11-21T05:53:42;1.10;99.90
42365;DHT22;28498;54.400;18.566;2023-11-21T05:56:10;1.20;99.90
42365;DHT22;28498;54.400;18.566;2023-11-21T05:58:37;1.10;99.90
42365;DHT22;28498;54.400;18.566;2023-11-21T06:01:05;1.10;99.90
42365;DHT22;28498;54.400;18.566;2023-11-21T06:03:35;1.10;99.90
42365;DHT22;28498;54.400;18.566;2023-11-21T06:06:04;1.10;99.90
42365;DHT22;28498;54.400;18.566;2023-11-21T06:08:31;1.10;99.90
42365;DHT22;28498;54.400;18.566;2023-11-21T06:10:58;1.00;99.90
42365;DHT22;28498;54.400;18.566;2023-11-21T06:13:25;1.00;99.90
42365;DHT22;28498;54.400;18.566;2023-11-21T06:15:53;1.00;99.90
42365;DHT22;28498;54.400;18.566;2023-11-21T06:18:20;1.00;99.90
42365;DHT22;28498;54.400;18.566;2023-11-21T06:20:47;1.10;99.90
42365;DHT22;28498;54.400;18.566;2023-11-21T06:23:14;1.10;99.90
42365;DHT22;28498;54.400;18.566;2023-11-21T06:25:43;1.00;99.90
42365;DHT22;28498;54.400;18.566;2023-11-21T06:28:10;1.00;99.90
42365;DHT22;28498;54.400;18.566;2023-11-21T06:30:37;1.00;99.90
42365;DHT22;28498;54.400;18.566;2023-11-21T06:33:04;0.90;99.90
42365;DHT22;28498;54.400;18.566;2023-11-21T06:35:33;1.00;99.90
42365;DHT22;28498;54.400;18.566;2023-11-21T06:38:01;0.90;99.90
42365;DHT22;28498;54.400;18.566;2023-11-21T06:40:29;0.90;99.90
42365;DHT22;28498;54.400;18.566;2023-11-21T06:42:57;0.90;99.90
42365;DHT22;28498;54.400;18.566;2023-11-21T06:45:25;0.90;99.90
42365;DHT22;28498;54.400;18.566;2023-11-21T06:47:52;1.00;99.90
42365;DHT22;28498;54.400;18.566;2023-11-21T06:50:20;1.00;99.90
42365;DHT22;28498;54.400;18.566;2023-11-21T06:52:47;1.00;99.90
42365;DHT22;28498;54.400;18.566;2023-11-21T06:55:15;0.90;99.90
42365;DHT22;28498;54.400;18.566;2023-11-21T06:57:43;0.90;99.90
42365;DHT22;28498;54.400;18.566;2023-11-21T07:00:11;1.10;99.90
42365;DHT22;28498;54.400;18.566;2023-11-21T07:02:38;1.00;99.90
42365;DHT22;28498;54.400;18.566;2023-11-21T07:05:07;1.00;99.90
42365;DHT22;28498;54.400;18.566;2023-11-21T07:07:34;1.00;99.90
42365;DHT22;28498;54.400;18.566;2023-11-21T07:10:03;1.00;99.90
42365;DHT22;28498;54.400;18.566;2023-11-21T07:12:31;1.10;99.90
42365;DHT22;28498;54.400;18.566;2023-11-21T07:14:58;1.10;99.90
42365;DHT22;28498;54.400;18.566;2023-11-21T07:17:25;1.10;99.90
42365;DHT22;28498;54.400;18.566;2023-11-21T07:19:52;1.20;99.90
42365;DHT22;28498;54.400;18.566;2023-11-21T07:22:19;1.10;99.90
42365;DHT22;28498;54.400;18.566;2023-11-21T07:24:51;1.20;99.90
42365;DHT22;28498;54.400;18.566;2023-11-21T07:27:19;1.20;99.90
42365;DHT22;28498;54.400;18.566;2023-11-21T07:29:46;1.20;99.90
42365;DHT22;28498;54.400;18.566;2023-11-21T07:32:15;1.30;99.90
42365;DHT22;28498;54.400;18.566;2023-11-21T07:34:43;1.20;99.90
42365;DHT22;28498;54.400;18.566;2023-11-21T07:37:10;1.20;99.90
42365;DHT22;28498;54.400;18.566;2023-11-21T07:39:37;1.30;99.90
42365;DHT22;28498;54.400;18.566;2023-11-21T07:42:04;1.20;99.90
42365;DHT22;28498;54.400;18.566;2023-11-21T07:44:31;1.30;99.90
42365;DHT22;28498;54.400;18.566;2023-11-21T07:46:58;1.40;99.90
42365;DHT22;28498;54.400;18.566;2023-11-21T07:49:25;1.50;99.90
42365;DHT22;28498;54.400;18.566;2023-11-21T07:51:53;1.50;99.90
42365;DHT22;28498;54.400;18.566;2023-11-21T07:54:20;1.60;99.90
42365;DHT22;28498;54.400;18.566;2023-11-21T07:56:48;1.60;99.90
42365;DHT22;28498;54.400;18.566;2023-11-21T07:59:15;1.60;99.90
42365;DHT22;28498;54.400;18.566;2023-11-21T08:01:42;1.60;99.90
42365;DHT22;28498;54.400;18.566;2023-11-21T08:04:10;1.60;99.90
42365;DHT22;28498;54.400;18.566;2023-11-21T08:06:37;1.60;99.90
42365;DHT22;28498;54.400;18.566;2023-11-21T08:09:04;1.60;99.90
42365;DHT22;28498;54.400;18.566;2023-11-21T08:11:31;1.50;99.90
42365;DHT22;28498;54.400;18.566;2023-11-21T08:14:00;1.60;99.90
42365;DHT22;28498;54.400;18.566;2023-11-21T08:16:27;1.60;99.90
42365;DHT22;28498;54.400;18.566;2023-11-21T08:18:54;1.50;99.90
42365;DHT22;28498;54.400;18.566;2023-11-21T08:21:22;1.60;99.90
42365;DHT22;28498;54.400;18.566;2023-11-21T08:23:51;1.60;99.90
42365;DHT22;28498;54.400;18.566;2023-11-21T08:26:22;1.70;99.90
42365;DHT22;28498;54.400;18.566;2023-11-21T08:28:49;1.70;99.90
42365;DHT22;28498;54.400;18.566;2023-11-21T08:31:24;1.60;99.90
42365;DHT22;28498;54.400;18.566;2023-11-21T08:33:52;1.60;99.90
42365;DHT22;28498;54.400;18.566;2023-11-21T08:36:22;1.50;99.90
42365;DHT22;28498;54.400;18.566;2023-11-21T08:38:52;1.50;99.90
42365;DHT22;28498;54.400;18.566;2023-11-21T08:41:19;1.60;99.90
42365;DHT22;28498;54.400;18.566;2023-11-21T08:43:53;1.70;99.90
42365;DHT22;28498;54.400;18.566;2023-11-21T08:46:22;1.70;99.90
42365;DHT22;28498;54.400;18.566;2023-11-21T08:48:49;1.60;99.90
42365;DHT22;28498;54.400;18.566;2023-11-21T08:51:19;1.70;99.90
42365;DHT22;28498;54.400;18.566;2023-11-21T08:53:46;1.70;99.90
42365;DHT22;28498;54.400;18.566;2023-11-21T08:56:14;1.70;99.90
42365;DHT22;28498;54.400;18.566;2023-11-21T08:58:41;1.70;99.90
42365;DHT22;28498;54.400;18.566;2023-11-21T09:01:08;1.90;99.90
42365;DHT22;28498;54.400;18.566;2023-11-21T09:03:35;1.80;99.90
42365;DHT22;28498;54.400;18.566;2023-11-21T09:06:03;1.90;99.90
42365;DHT22;28498;54.400;18.566;2023-11-21T09:08:31;2.10;99.90
42365;DHT22;28498;54.400;18.566;2023-11-21T09:10:58;2.20;99.90
42365;DHT22;28498;54.400;18.566;2023-11-21T09:13:25;2.50;99.90
42365;DHT22;28498;54.400;18.566;2023-11-21T09:15:53;2.80;99.90
42365;DHT22;28498;54.400;18.566;2023-11-21T09:18:20;2.70;99.90
42365;DHT22;28498;54.400;18.566;2023-11-21T09:20:47;2.80;99.90
42365;DHT22;28498;54.400;18.566;2023-11-21T09:23:14;2.80;99.90
42365;DHT22;28498;54.400;18.566;2023-11-21T09:25:41;2.50;99.90
42365;DHT22;28498;54.400;18.566;2023-11-21T09:28:08;2.40;99.90
42365;DHT22;28498;54.400;18.566;2023-11-21T09:30:36;2.30;99.90
42365;DHT22;28498;54.400;18.566;2023-11-21T09:33:04;2.30;99.90
42365;DHT22;28498;54.400;18.566;2023-11-21T09:35:38;2.40;99.90
42365;DHT22;28498;54.400;18.566;2023-11-21T09:38:05;2.40;99.90
42365;DHT22;28498;54.400;18.566;2023-11-21T09:40:37;2.30;99.90
42365;DHT22;28498;54.400;18.566;2023-11-21T09:43:07;2.40;97.40
42365;DHT22;28498;54.400;18.566;2023-11-21T09:45:36;2.50;99.90
42365;DHT22;28498;54.400;18.566;2023-11-21T09:48:05;2.50;98.40
42365;DHT22;28498;54.400;18.566;2023-11-21T09:50:34;2.60;98.40
42365;DHT22;28498;54.400;18.566;2023-11-21T09:53:17;2.50;99.90
42365;DHT22;28498;54.400;18.566;2023-11-21T09:55:47;2.50;99.90
42365;DHT22;28498;54.400;18.566;2023-11-21T09:58:15;2.50;99.30
42365;DHT22;28498;54.400;18.566;2023-11-21T10:00:44;2.50;99.90
42365;DHT22;28498;54.400;18.566;2023-11-21T10:03:11;2.50;99.90
42365;DHT22;28498;54.400;18.566;2023-11-21T10:05:42;2.50;99.90
42365;DHT22;28498;54.400;18.566;2023-11-21T10:08:10;2.50;98.70
42365;DHT22;28498;54.400;18.566;2023-11-21T10:10:46;2.50;98.90
42365;DHT22;28498;54.400;18.566;2023-11-21T10:13:15;2.60;99.90
42365;DHT22;28498;54.400;18.566;2023-11-21T10:15:46;2.50;99.90
42365;DHT22;28498;54.400;18.566;2023-11-21T10:18:16;2.60;99.90
42365;DHT22;28498;54.400;18.566;2023-11-21T10:20:43;2.60;99.90
42365;DHT22;28498;54.400;18.566;2023-11-21T10:23:13;2.60;99.90
42365;DHT22;28498;54.400;18.566;2023-11-21T10:25:42;2.60;99.90
42365;DHT22;28498;54.400;18.566;2023-11-21T10:28:10;2.60;99.90
42365;DHT22;28498;54.400;18.566;2023-11-21T10:30:38;2.60;99.90
42365;DHT22;28498;54.400;18.566;2023-11-21T10:33:06;2.50;99.80
42365;DHT22;28498;54.400;18.566;2023-11-21T10:35:48;2.50;99.30
42365;DHT22;28498;54.400;18.566;2023-11-21T10:38:21;2.60;99.90
42365;DHT22;28498;54.400;18.566;2023-11-21T10:40:51;2.60;99.90
42365;DHT22;28498;54.400;18.566;2023-11-21T10:43:19;2.70;99.10
42365;DHT22;28498;54.400;18.566;2023-11-21T10:45:46;2.70;99.50
42365;DHT22;28498;54.400;18.566;2023-11-21T10:48:14;2.70;99.90
42365;DHT22;28498;54.400;18.566;2023-11-21T10:50:46;2.60;98.30
42365;DHT22;28498;54.400;18.566;2023-11-21T10:53:14;2.60;99.90
42365;DHT22;28498;54.400;18.566;2023-11-21T10:55:41;2.40;99.90
42365;DHT22;28498;54.400;18.566;2023-11-21T10:58:10;2.50;98.40
42365;DHT22;28498;54.400;18.566;2023-11-21T11:00:40;2.50;99.90
42365;DHT22;28498;54.400;18.566;2023-11-21T11:03:08;2.50;99.90
42365;DHT22;28498;54.400;18.566;2023-11-21T11:05:44;2.40;99.40
42365;DHT22;28498;54.400;18.566;2023-11-21T11:08:20;2.40;99.40
42365;DHT22;28498;54.400;18.566;2023-11-21T11:10:54;2.40;99.90
42365;DHT22;28498;54.400;18.566;2023-11-21T11:13:22;2.50;99.90
42365;DHT22;28498;54.400;18.566;2023-11-21T11:15:50;2.50;98.70
42365;DHT22;28498;54.400;18.566;2023-11-21T11:18:18;2.40;99.80
42365;DHT22;28498;54.400;18.566;2023-11-21T11:20:51;2.50;99.90
42365;DHT22;28498;54.400;18.566;2023-11-21T11:29:23;2.50;99.20
42365;DHT22;28498;54.400;18.566;2023-11-21T11:34:48;2.60;99.90
42365;DHT22;28498;54.400;18.566;2023-11-21T11:37:17;2.70;99.90
42365;DHT22;28498;54.400;18.566;2023-11-21T11:39:45;2.60;99.90
42365;DHT22;28498;54.400;18.566;2023-11-21T11:42:17;2.60;99.90
42365;DHT22;28498;54.400;18.566;2023-11-21T11:47:29;2.60;99.90
42365;DHT22;28498;54.400;18.566;2023-11-21T11:50:10;2.60;99.90
42365;DHT22;28498;54.400;18.566;2023-11-21T11:52:48;2.60;99.90
42365;DHT22;28498;54.400;18.566;2023-11-21T11:55:19;2.60;99.90
42365;DHT22;28498;54.400;18.566;2023-11-21T11:57:53;2.50;99.90
42365;DHT22;28498;54.400;18.566;2023-11-21T12:02:55;2.50;99.90
42365;DHT22;28498;54.400;18.566;2023-11-21T12:05:24;2.50;99.90
42365;DHT22;28498;54.400;18.566;2023-11-21T12:07:56;2.40;99.90
42365;DHT22;28498;54.400;18.566;2023-11-21T12:10:26;2.50;99.90
42365;DHT22;28498;54.400;18.566;2023-11-21T12:12:59;2.50;99.90
42365;DHT22;28498;54.400;18.566;2023-11-21T12:15:27;2.50;99.90
42365;DHT22;28498;54.400;18.566;2023-11-21T12:17:58;2.60;99.90
42365;DHT22;28498;54.400;18.566;2023-11-21T12:20:27;2.60;99.90
42365;DHT22;28498;54.400;18.566;2023-11-21T12:22:55;2.60;99.90
42365;DHT22;28498;54.400;18.566;2023-11-21T12:25:24;2.50;99.90
42365;DHT22;28498;54.400;18.566;2023-11-21T12:27:56;2.30;99.90
42365;DHT22;28498;54.400;18.566;2023-11-21T12:30:26;2.30;99.90
42365;DHT22;28498;54.400;18.566;2023-11-21T12:32:55;2.20;99.90
42365;DHT22;28498;54.400;18.566;2023-11-21T12:35:25;2.20;99.90
42365;DHT22;28498;54.400;18.566;2023-11-21T12:37:54;2.20;99.90
42365;DHT22;28498;54.400;18.566;2023-11-21T12:40:24;2.20;99.90
42365;DHT22;28498;54.400;18.566;2023-11-21T12:42:54;2.20;99.90
42365;DHT22;28498;54.400;18.566;2023-11-21T12:47:50;2.30;99.90
42365;DHT22;28498;54.400;18.566;2023-11-21T12:50:24;2.30;99.90
42365;DHT22;28498;54.400;18.566;2023-11-21T12:53:00;2.30;99.90
42365;DHT22;28498;54.400;18.566;2023-11-21T12:55:31;2.30;99.90
42365;DHT22;28498;54.400;18.566;2023-11-21T12:58:02;2.20;99.90
42365;DHT22;28498;54.400;18.566;2023-11-21T13:00:40;2.20;99.90
42365;DHT22;28498;54.400;18.566;2023-11-21T13:03:11;2.20;99.90
42365;DHT22;28498;54.400;18.566;2023-11-21T13:05:40;2.20;99.90
42365;DHT22;28498;54.400;18.566;2023-11-21T13:08:14;2.30;99.90
42365;DHT22;28498;54.400;18.566;2023-11-21T13:10:49;2.40;99.90
42365;DHT22;28498;54.400;18.566;2023-11-21T13:13:17;2.50;99.90
42365;DHT22;28498;54.400;18.566;2023-11-21T13:15:52;2.60;99.90
42365;DHT22;28498;54.400;18.566;2023-11-21T13:18:19;2.60;99.90
42365;DHT22;28498;54.400;18.566;2023-11-21T13:20:49;2.70;99.90
42365;DHT22;28498;54.400;18.566;2023-11-21T13:23:17;2.70;99.90
42365;DHT22;28498;54.400;18.566;2023-11-21T13:25:44;2.70;99.90
42365;DHT22;28498;54.400;18.566;2023-11-21T13:28:27;2.70;99.90
42365;DHT22;28498;54.400;18.566;2023-11-21T13:31:00;2.70;99.90
42365;DHT22;28498;54.400;18.566;2023-11-21T13:33:40;2.80;99.90
42365;DHT22;28498;54.400;18.566;2023-11-21T13:36:10;2.80;99.90
42365;DHT22;28498;54.400;18.566;2023-11-21T13:38:37;2.80;99.90
42365;DHT22;28498;54.400;18.566;2023-11-21T13:41:10;2.90;99.90
42365;DHT22;28498;54.400;18.566;2023-11-21T13:43:39;2.80;99.90
42365;DHT22;28498;54.400;18.566;2023-11-21T13:46:06;2.90;99.90
42365;DHT22;28498;54.400;18.566;2023-11-21T13:48:42;2.90;99.90
42365;DHT22;28498;54.400;18.566;2023-11-21T13:51:10;2.80;99.90
42365;DHT22;28498;54.400;18.566;2023-11-21T13:53:45;2.80;99.90
42365;DHT22;28498;54.400;18.566;2023-11-21T13:56:18;2.80;99.90
42365;DHT22;28498;54.400;18.566;2023-11-21T13:58:51;2.80;99.90
42365;DHT22;28498;54.400;18.566;2023-11-21T14:01:21;2.70;99.90
42365;DHT22;28498;54.400;18.566;2023-11-21T14:03:51;2.70;99.90
42365;DHT22;28498;54.400;18.566;2023-11-21T14:06:24;2.70;99.90
42365;DHT22;28498;54.400;18.566;2023-11-21T14:09:02;2.80;99.90
42365;DHT22;28498;54.400;18.566;2023-11-21T14:11:32;2.70;99.90
42365;DHT22;28498;54.400;18.566;2023-11-21T14:14:09;2.70;99.90
42365;DHT22;28498;54.400;18.566;2023-11-21T14:16:36;2.70;99.90
42365;DHT22;28498;54.400;18.566;2023-11-21T14:19:04;2.70;99.90
42365;DHT22;28498;54.400;18.566;2023-11-21T14:21:43;2.70;99.90
42365;DHT22;28498;54.400;18.566;2023-11-21T14:24:11;2.70;99.90
42365;DHT22;28498;54.400;18.566;2023-11-21T14:26:46;2.70;99.90
42365;DHT22;28498;54.400;18.566;2023-11-21T14:29:15;2.70;99.90
42365;DHT22;28498;54.400;18.566;2023-11-21T14:31:47;2.80;99.90
42365;DHT22;28498;54.400;18.566;2023-11-21T14:34:15;2.70;99.90
42365;DHT22;28498;54.400;18.566;2023-11-21T14:36:47;2.70;99.90
42365;DHT22;28498;54.400;18.566;2023-11-21T14:39:14;2.70;99.90
42365;DHT22;28498;54.400;18.566;2023-11-21T14:42:03;2.70;99.90
42365;DHT22;28498;54.400;18.566;2023-11-21T14:44:31;2.70;99.90
42365;DHT22;28498;54.400;18.566;2023-11-21T14:47:04;2.60;99.90
42365;DHT22;28498;54.400;18.566;2023-11-21T14:49:40;2.70;99.90
42365;DHT22;28498;54.400;18.566;2023-11-21T14:52:20;2.70;99.90
42365;DHT22;28498;54.400;18.566;2023-11-21T14:55:02;2.70;99.90
42365;DHT22;28498;54.400;18.566;2023-11-21T14:57:48;2.70;99.90
42365;DHT22;28498;54.400;18.566;2023-11-21T15:00:19;2.70;99.90
42365;DHT22;28498;54.400;18.566;2023-11-21T15:03:09;2.60;99.90
42365;DHT22;28498;54.400;18.566;2023-11-21T15:05:38;2.60;99.90
42365;DHT22;28498;54.400;18.566;2023-11-21T15:08:06;2.50;99.90
42365;DHT22;28498;54.400;18.566;2023-11-21T15:10:53;2.50;99.90
42365;DHT22;28498;54.400;18.566;2023-11-21T15:13:21;2.50;99.90
42365;DHT22;28498;54.400;18.566;2023-11-21T15:15:54;2.40;99.90
42365;DHT22;28498;54.400;18.566;2023-11-21T15:18:21;2.40;99.90
42365;DHT22;28498;54.400;18.566;2023-11-21T15:20:49;2.30;99.90
42365;DHT22;28498;54.400;18.566;2023-11-21T15:23:16;2.30;99.90
42365;DHT22;28498;54.400;18.566;2023-11-21T15:25:46;2.20;99.90
42365;DHT22;28498;54.400;18.566;2023-11-21T15:28:13;2.20;99.90
42365;DHT22;28498;54.400;18.566;2023-11-21T15:30:40;2.20;99.90
42365;DHT22;28498;54.400;18.566;2023-11-21T15:33:07;2.20;99.90
42365;DHT22;28498;54.400;18.566;2023-11-21T15:35:35;2.20;99.90
42365;DHT22;28498;54.400;18.566;2023-11-21T15:38:04;2.20;99.90
42365;DHT22;28498;54.400;18.566;2023-11-21T15:40:32;2.20;99.90
42365;DHT22;28498;54.400;18.566;2023-11-21T15:42:59;2.20;99.90
42365;DHT22;28498;54.400;18.566;2023-11-21T15:45:26;2.20;99.90
42365;DHT22;28498;54.400;18.566;2023-11-21T15:47:53;2.10;99.90
42365;DHT22;28498;54.400;18.566;2023-11-21T15:50:20;2.10;99.90
42365;DHT22;28498;54.400;18.566;2023-11-21T15:52:48;2.10;99.90
42365;DHT22;28498;54.400;18.566;2023-11-21T15:55:24;2.10;99.90
42365;DHT22;28498;54.400;18.566;2023-11-21T15:57:52;2.00;99.90